Time;durP1;ratioP1;P1;durP2;ratioP2;P2;SDS_P1;SDS_P2;PMS_P1;PMS_P2;Temp;Humidity;BMP_temperature;BMP_pressure;BME280_temperature;BME280_humidity;BME280_pressure;Samples;Min_cycle;Max_cycle;Signal;HPM_P1;HPM_P2
2023/11/06 00:01:49;;;;;;;14.68;3.38;;;11.70;99.90;;;;;;5027421;28;20021;-74
2023/11/06 00:04:15;;;;;;;15.68;2.65;;;11.70;99.90;;;;;;5022321;28;20030;-75
2023/11/06 00:06:41;;;;;;;12.20;3.00;;;11.60;99.90;;;;;;5031389;28;20083;-76
2023/11/06 00:09:07;;;;;;;11.20;3.47;;;11.70;99.90;;;;;;5023411;27;20025;-75
2023/11/06 00:11:33;;;;;;;11.95;3.03;;;11.60;99.90;;;;;;5023166;28;20077;-73
2023/11/06 00:13:59;;;;;;;17.05;6.45;;;11.60;99.90;;;;;;5025220;28;20049;-74
2023/11/06 00:16:25;;;;;;;13.20;5.20;;;11.60;99.90;;;;;;5028778;27;20112;-73
2023/11/06 00:18:51;;;;;;;15.82;8.00;;;11.60;99.90;;;;;;5027665;28;20075;-75
2023/11/06 00:21:17;;;;;;;12.45;2.95;;;11.60;99.90;;;;;;5027786;28;20029;-73
2023/11/06 00:23:44;;;;;;;11.50;2.88;;;11.60;99.90;;;;;;5025812;28;20060;-73
2023/11/06 00:26:16;;;;;;;12.40;2.72;;;11.70;99.90;;;;;;5023388;28;20026;-72
2023/11/06 00:28:43;;;;;;;10.30;2.93;;;11.70;99.90;;;;;;5021963;28;20026;-74
2023/11/06 00:31:09;;;;;;;16.88;3.08;;;11.60;99.90;;;;;;5026675;28;20147;-72
2023/11/06 00:33:35;;;;;;;12.07;2.53;;;11.70;99.90;;;;;;5020840;28;20068;-75
2023/11/06 00:36:01;;;;;;;11.70;3.47;;;11.70;99.90;;;;;;5026129;28;20033;-74
2023/11/06 00:38:26;;;;;;;7.40;1.98;;;11.60;99.90;;;;;;5020515;28;20033;-74
2023/11/06 00:40:52;;;;;;;11.63;2.25;;;11.60;99.90;;;;;;5018877;28;20608;-73
2023/11/06 00:43:18;;;;;;;11.85;2.10;;;11.70;99.90;;;;;;5017762;27;20061;-73
2023/11/06 00:45:43;;;;;;;11.40;2.10;;;11.70;99.90;;;;;;5020368;28;20030;-74
2023/11/06 00:48:09;;;;;;;12.32;2.35;;;11.70;99.90;;;;;;5023447;28;20076;-74
2023/11/06 00:50:35;;;;;;;11.68;2.38;;;11.60;99.90;;;;;;5024025;28;20113;-74
2023/11/06 00:53:01;;;;;;;9.73;2.33;;;11.60;99.90;;;;;;5018472;27;20056;-73
2023/11/06 00:55:26;;;;;;;10.85;2.10;;;11.60;99.90;;;;;;5023315;28;20029;-73
2023/11/06 00:57:52;;;;;;;8.98;3.13;;;11.60;99.90;;;;;;5021949;28;20100;-75
2023/11/06 01:00:21;;;;;;;6.00;2.08;;;11.60;99.90;;;;;;5021481;28;20033;-73
2023/11/06 01:02:47;;;;;;;7.22;2.22;;;11.60;99.90;;;;;;5018781;28;20052;-72
2023/11/06 01:05:12;;;;;;;7.38;2.50;;;11.60;99.90;;;;;;5022984;28;20099;-73
2023/11/06 01:07:38;;;;;;;9.88;1.95;;;11.60;99.90;;;;;;5022221;28;20504;-73
2023/11/06 01:10:05;;;;;;;14.65;2.42;;;11.60;99.90;;;;;;5017329;28;20033;-72
2023/11/06 01:12:30;;;;;;;9.55;2.30;;;11.60;99.90;;;;;;5023370;28;20026;-73
2023/11/06 01:14:57;;;;;;;12.13;2.08;;;11.50;99.90;;;;;;5024701;28;20036;-73
2023/11/06 01:17:25;;;;;;;14.70;2.85;;;11.50;99.90;;;;;;5015571;28;20025;-72
2023/11/06 01:19:51;;;;;;;9.48;2.30;;;11.50;99.90;;;;;;5021099;28;20167;-74
2023/11/06 01:22:17;;;;;;;11.05;1.88;;;11.60;99.90;;;;;;5025423;28;20025;-72
2023/11/06 01:24:43;;;;;;;12.20;2.58;;;11.50;99.90;;;;;;5019238;28;20022;-72
2023/11/06 01:27:09;;;;;;;6.50;1.90;;;11.50;99.90;;;;;;5021393;28;20565;-74
2023/11/06 01:29:36;;;;;;;7.55;2.25;;;11.50;99.90;;;;;;5027113;28;20505;-74
2023/11/06 01:32:03;;;;;;;10.75;2.50;;;11.40;99.90;;;;;;5021542;28;20034;-72
2023/11/06 01:34:29;;;;;;;12.43;2.25;;;11.40;99.90;;;;;;5019690;28;20022;-72
2023/11/06 01:36:55;;;;;;;10.30;2.03;;;11.40;99.90;;;;;;5020045;28;20482;-73
2023/11/06 01:39:22;;;;;;;6.60;2.83;;;11.40;99.90;;;;;;5016991;27;20040;-72
2023/11/06 01:41:48;;;;;;;6.00;2.10;;;11.50;99.90;;;;;;5020186;28;20018;-77
2023/11/06 01:44:14;;;;;;;6.57;1.95;;;11.40;99.90;;;;;;5020027;28;20504;-75
2023/11/06 01:46:40;;;;;;;9.98;2.38;;;11.50;99.90;;;;;;5019834;28;20049;-74
2023/11/06 01:49:07;;;;;;;9.20;2.00;;;11.50;99.90;;;;;;5016460;28;20492;-75
2023/11/06 01:51:35;;;;;;;11.48;2.67;;;11.40;99.90;;;;;;5020296;28;20094;-76
2023/11/06 01:54:02;;;;;;;8.20;1.90;;;11.40;99.90;;;;;;5029551;28;20030;-74
2023/11/06 01:56:32;;;;;;;6.50;1.50;;;11.40;99.90;;;;;;5025972;28;20512;-73
2023/11/06 01:58:58;;;;;;;8.02;1.92;;;11.40;99.90;;;;;;5015300;28;20039;-73
2023/11/06 02:01:26;;;;;;;9.07;1.70;;;11.40;99.90;;;;;;5019658;28;20028;-73
2023/11/06 02:03:53;;;;;;;5.13;1.67;;;11.40;99.90;;;;;;5020393;28;20025;-72
2023/11/06 02:06:19;;;;;;;5.07;1.98;;;11.40;99.90;;;;;;5019015;28;20048;-73
2023/11/06 02:08:45;;;;;;;5.60;1.50;;;11.40;99.90;;;;;;5019995;28;21118;-76
2023/11/06 02:11:11;;;;;;;11.40;1.88;;;11.40;99.90;;;;;;5020400;28;20038;-74
2023/11/06 02:13:37;;;;;;;6.50;2.00;;;11.40;99.90;;;;;;5017614;28;20018;-72
2023/11/06 02:16:03;;;;;;;8.80;1.80;;;11.30;99.90;;;;;;5023509;28;20105;-73
2023/11/06 02:18:29;;;;;;;8.38;1.33;;;11.30;99.90;;;;;;5021744;28;20022;-72
2023/11/06 02:20:56;;;;;;;4.38;1.98;;;11.30;99.90;;;;;;5016658;28;20143;-72
2023/11/06 02:23:24;;;;;;;7.88;1.67;;;11.20;99.90;;;;;;5017569;28;20026;-75
2023/11/06 02:25:50;;;;;;;5.78;1.60;;;11.20;99.90;;;;;;5017292;28;20030;-72
2023/11/06 02:28:16;;;;;;;7.88;1.30;;;11.30;99.90;;;;;;5018894;28;20029;-73
2023/11/06 02:30:41;;;;;;;9.07;1.88;;;11.30;99.90;;;;;;5020317;28;20060;-72
2023/11/06 02:33:07;;;;;;;6.55;1.38;;;11.30;99.90;;;;;;5021324;28;20072;-72
2023/11/06 02:35:33;;;;;;;6.93;1.20;;;11.30;99.90;;;;;;5018434;28;20113;-73
2023/11/06 02:37:58;;;;;;;6.50;1.30;;;11.20;99.90;;;;;;5013625;28;20053;-72
2023/11/06 02:40:24;;;;;;;4.88;1.15;;;11.20;99.90;;;;;;5019234;28;20025;-75
2023/11/06 02:42:50;;;;;;;4.63;1.00;;;11.20;99.90;;;;;;5026742;28;20022;-72
2023/11/06 02:45:16;;;;;;;8.55;1.38;;;11.10;99.90;;;;;;5021354;28;20501;-72
2023/11/06 02:47:42;;;;;;;6.53;1.20;;;11.10;99.90;;;;;;5024106;28;20061;-72
2023/11/06 02:50:11;;;;;;;7.45;1.05;;;11.00;99.90;;;;;;5022646;28;20432;-72
2023/11/06 02:52:38;;;;;;;3.42;1.05;;;11.00;99.90;;;;;;5022453;28;20587;-73
2023/11/06 02:55:04;;;;;;;8.20;1.33;;;11.00;99.90;;;;;;5017215;28;20580;-72
2023/11/06 02:57:30;;;;;;;3.55;1.42;;;11.00;99.90;;;;;;5024430;28;20094;-75
2023/11/06 02:59:55;;;;;;;3.97;1.45;;;11.10;99.90;;;;;;5021899;27;20105;-73
2023/11/06 03:02:21;;;;;;;4.15;1.60;;;11.00;99.90;;;;;;5031125;28;20109;-73
2023/11/06 03:04:47;;;;;;;6.45;1.48;;;11.00;99.90;;;;;;5024173;28;20026;-74
2023/11/06 03:07:13;;;;;;;7.70;1.38;;;11.00;99.90;;;;;;5018196;28;20612;-72
2023/11/06 03:09:39;;;;;;;5.30;1.10;;;10.90;99.90;;;;;;5021038;28;20030;-72
2023/11/06 03:12:07;;;;;;;4.82;1.33;;;11.00;99.90;;;;;;5018914;28;20099;-71
2023/11/06 03:14:34;;;;;;;7.70;1.55;;;11.00;99.90;;;;;;5018117;28;20025;-75
2023/11/06 03:16:59;;;;;;;4.60;1.50;;;11.10;99.90;;;;;;5017841;28;20029;-74
2023/11/06 03:19:25;;;;;;;4.63;1.40;;;11.00;99.90;;;;;;5021401;28;20422;-75
2023/11/06 03:21:51;;;;;;;6.53;1.63;;;11.00;99.90;;;;;;5015038;28;20029;-72
2023/11/06 03:24:17;;;;;;;11.60;1.77;;;10.90;99.90;;;;;;5019510;28;20470;-72
2023/11/06 03:26:42;;;;;;;7.75;1.55;;;11.00;99.90;;;;;;5023969;28;20801;-72
2023/11/06 03:29:08;;;;;;;3.20;0.90;;;11.00;99.90;;;;;;5025005;28;20040;-72
2023/11/06 03:31:34;;;;;;;3.85;1.35;;;11.00;99.90;;;;;;5017195;28;20073;-74
2023/11/06 03:33:59;;;;;;;9.68;1.50;;;11.00;99.90;;;;;;5019245;28;20084;-72
2023/11/06 03:36:25;;;;;;;5.63;1.10;;;11.00;99.90;;;;;;5018853;28;20474;-72
2023/11/06 03:38:50;;;;;;;7.00;1.40;;;10.90;99.90;;;;;;5016624;28;20480;-71
2023/11/06 03:41:16;;;;;;;7.03;1.40;;;11.00;99.90;;;;;;5026696;27;20390;-72
2023/11/06 03:43:42;;;;;;;4.10;1.48;;;11.00;99.90;;;;;;5015996;28;20034;-72
2023/11/06 03:46:08;;;;;;;4.03;1.27;;;11.00;99.90;;;;;;5022456;28;20081;-73
2023/11/06 03:48:34;;;;;;;7.93;1.40;;;10.90;99.90;;;;;;5033899;28;20025;-71
2023/11/06 03:50:59;;;;;;;4.88;1.08;;;10.90;99.90;;;;;;5021015;28;20041;-72
2023/11/06 03:53:25;;;;;;;6.47;1.60;;;10.90;99.90;;;;;;5020750;28;20533;-73
2023/11/06 03:55:51;;;;;;;4.35;1.35;;;10.90;99.90;;;;;;5016238;28;20036;-71
2023/11/06 03:58:16;;;;;;;5.55;1.45;;;11.00;99.90;;;;;;5020915;28;20104;-71
2023/11/06 04:00:42;;;;;;;9.07;1.75;;;11.00;99.90;;;;;;5028140;28;20462;-72
2023/11/06 04:03:08;;;;;;;5.65;1.58;;;11.00;99.90;;;;;;5027019;28;20036;-72
2023/11/06 04:05:33;;;;;;;4.60;1.48;;;11.00;99.90;;;;;;5027199;27;20051;-72
2023/11/06 04:07:59;;;;;;;7.72;1.50;;;11.00;99.90;;;;;;5019598;28;20037;-73
2023/11/06 04:10:25;;;;;;;9.02;1.60;;;10.90;99.90;;;;;;5025096;28;20125;-71
2023/11/06 04:12:51;;;;;;;10.82;1.83;;;10.90;99.90;;;;;;5027448;28;20390;-72
2023/11/06 04:15:17;;;;;;;10.82;1.45;;;11.00;99.90;;;;;;5019988;28;20022;-74
2023/11/06 04:17:43;;;;;;;6.25;1.60;;;11.00;99.90;;;;;;5020178;28;21010;-74
2023/11/06 04:20:10;;;;;;;9.55;2.10;;;11.00;99.90;;;;;;5021592;28;20095;-73
2023/11/06 04:22:37;;;;;;;5.60;2.20;;;11.00;99.90;;;;;;5019268;28;20030;-72
2023/11/06 04:25:03;;;;;;;9.98;1.73;;;11.00;99.90;;;;;;5023199;28;20059;-72
2023/11/06 04:27:30;;;;;;;9.75;1.98;;;11.00;99.90;;;;;;5021679;28;20075;-72
2023/11/06 04:29:55;;;;;;;8.10;2.22;;;11.10;99.90;;;;;;5023092;28;20107;-72
2023/11/06 04:32:21;;;;;;;8.32;2.00;;;11.00;99.90;;;;;;5019765;28;20038;-71
2023/11/06 04:34:47;;;;;;;4.70;2.10;;;11.00;99.90;;;;;;5023342;28;20483;-72
2023/11/06 04:37:12;;;;;;;8.68;2.08;;;10.90;99.90;;;;;;5029718;28;20033;-72
2023/11/06 04:39:39;;;;;;;12.63;2.53;;;10.90;99.90;;;;;;5029807;28;20026;-73
2023/11/06 04:42:07;;;;;;;11.55;2.22;;;10.90;99.90;;;;;;5021536;28;20033;-72
2023/11/06 04:44:33;;;;;;;10.43;2.58;;;11.00;99.90;;;;;;5024485;28;20560;-72
2023/11/06 04:46:58;;;;;;;7.93;2.30;;;10.90;99.90;;;;;;5022344;28;20029;-72
2023/11/06 04:49:24;;;;;;;13.25;2.55;;;11.00;99.90;;;;;;5025786;28;20034;-73
2023/11/06 04:51:50;;;;;;;9.90;2.95;;;10.90;99.90;;;;;;5020394;28;20057;-72
2023/11/06 04:54:16;;;;;;;12.98;2.72;;;10.90;99.90;;;;;;5022867;28;20052;-72
2023/11/06 04:56:47;;;;;;;15.38;2.78;;;10.80;99.90;;;;;;5020134;28;20025;-72
2023/11/06 04:59:12;;;;;;;10.75;3.03;;;10.90;99.90;;;;;;5020950;28;20478;-73
2023/11/06 05:01:40;;;;;;;11.88;2.78;;;10.90;99.90;;;;;;5022039;28;20044;-74
2023/11/06 05:04:07;;;;;;;16.48;3.20;;;10.80;99.90;;;;;;5018973;28;20027;-74
2023/11/06 05:06:33;;;;;;;15.85;3.47;;;10.90;99.90;;;;;;5021321;28;20651;-75
2023/11/06 05:09:00;;;;;;;21.20;3.38;;;10.90;99.90;;;;;;5018678;28;20215;-72
2023/11/06 05:11:26;;;;;;;14.27;2.42;;;10.90;99.90;;;;;;5021125;28;20036;-72
2023/11/06 05:13:54;;;;;;;23.77;3.40;;;11.00;99.90;;;;;;5030770;28;20494;-73
2023/11/06 05:16:20;;;;;;;13.23;3.03;;;11.00;99.90;;;;;;5021258;28;20029;-74
2023/11/06 05:18:46;;;;;;;21.67;3.67;;;11.00;99.90;;;;;;5020996;28;20057;-73
2023/11/06 05:21:11;;;;;;;27.60;3.90;;;11.00;99.90;;;;;;5019225;28;20550;-75
2023/11/06 05:23:38;;;;;;;12.93;2.70;;;11.00;99.90;;;;;;5019648;28;20025;-72
2023/11/06 05:26:04;;;;;;;17.30;3.47;;;11.00;99.90;;;;;;5022313;28;20106;-78
2023/11/06 05:28:30;;;;;;;12.80;3.22;;;10.90;99.90;;;;;;5020355;28;20101;-74
2023/11/06 05:30:56;;;;;;;22.08;3.08;;;10.90;99.90;;;;;;5022856;28;20375;-79
2023/11/06 05:33:21;;;;;;;17.80;2.97;;;10.90;99.90;;;;;;5022207;28;20033;-76
2023/11/06 05:35:47;;;;;;;18.13;3.95;;;11.00;99.90;;;;;;5025380;28;20055;-74
2023/11/06 05:38:12;;;;;;;14.90;3.40;;;11.00;99.90;;;;;;5023548;28;20038;-74
2023/11/06 05:40:38;;;;;;;22.38;3.40;;;11.00;99.90;;;;;;5024071;28;20022;-78
2023/11/06 05:43:04;;;;;;;18.77;3.33;;;11.00;99.90;;;;;;5022819;28;20040;-75
2023/11/06 05:45:29;;;;;;;13.38;2.72;;;11.00;99.90;;;;;;5019618;28;20028;-74
2023/11/06 05:47:55;;;;;;;11.93;2.40;;;11.00;99.90;;;;;;5014034;28;20037;-74
2023/11/06 05:50:21;;;;;;;16.77;2.85;;;11.00;99.90;;;;;;5020587;28;20042;-75
2023/11/06 05:52:47;;;;;;;19.67;3.25;;;11.00;99.90;;;;;;5026088;28;20439;-72
2023/11/06 05:55:12;;;;;;;17.83;2.90;;;11.00;99.90;;;;;;5018717;28;20022;-75
2023/11/06 05:57:38;;;;;;;15.50;3.05;;;11.00;99.90;;;;;;5023600;28;20024;-76
2023/11/06 06:00:06;;;;;;;17.85;3.30;;;11.00;99.90;;;;;;5022248;28;20371;-75
2023/11/06 06:02:32;;;;;;;16.10;3.17;;;10.90;99.90;;;;;;5017647;28;20078;-75
2023/11/06 06:04:57;;;;;;;16.27;3.00;;;10.90;99.90;;;;;;5017220;28;20021;-72
2023/11/06 06:07:23;;;;;;;17.60;3.50;;;10.90;99.90;;;;;;5016318;28;20396;-74
2023/11/06 06:09:49;;;;;;;14.50;3.15;;;10.90;99.90;;;;;;5018535;28;20083;-80
2023/11/06 06:12:14;;;;;;;21.67;3.22;;;10.90;99.90;;;;;;5024898;28;20371;-75
2023/11/06 06:14:40;;;;;;;12.23;2.72;;;10.80;99.90;;;;;;5026991;28;20045;-73
2023/11/06 06:17:06;;;;;;;15.93;3.17;;;10.90;99.90;;;;;;5019401;28;20018;-72
2023/11/06 06:19:32;;;;;;;13.73;2.85;;;10.80;99.90;;;;;;5021448;28;20029;-73
2023/11/06 06:21:57;;;;;;;18.77;3.42;;;10.80;99.90;;;;;;5025439;28;20037;-74
2023/11/06 06:24:25;;;;;;;10.77;2.28;;;10.80;99.90;;;;;;5013661;28;20075;-74
2023/11/06 06:26:50;;;;;;;17.38;3.35;;;10.80;99.90;;;;;;5023134;28;20488;-72
2023/11/06 06:29:16;;;;;;;14.38;3.03;;;10.80;99.90;;;;;;5022241;28;20029;-74
2023/11/06 06:31:42;;;;;;;18.63;2.88;;;10.70;99.90;;;;;;5020684;28;20034;-74
2023/11/06 06:34:08;;;;;;;17.17;3.25;;;10.70;99.90;;;;;;5019267;28;20033;-74
2023/11/06 06:36:33;;;;;;;16.20;2.85;;;10.70;99.90;;;;;;5021957;28;20057;-75
2023/11/06 06:39:00;;;;;;;14.98;2.97;;;10.80;99.90;;;;;;5022604;28;20030;-78
2023/11/06 06:41:26;;;;;;;16.08;2.45;;;10.70;99.90;;;;;;5022154;28;20025;-79
2023/11/06 06:43:51;;;;;;;17.05;3.03;;;10.70;99.90;;;;;;5017060;28;20061;-74
2023/11/06 06:46:17;;;;;;;22.40;3.20;;;10.70;99.90;;;;;;5017205;28;20029;-80
2023/11/06 06:48:44;;;;;;;10.77;2.67;;;10.70;99.90;;;;;;5023064;28;20026;-75
2023/11/06 06:51:10;;;;;;;13.82;3.22;;;10.70;99.90;;;;;;5016704;28;20120;-85
2023/11/06 06:53:36;;;;;;;16.65;3.10;;;10.70;99.90;;;;;;5022776;28;20489;-80
2023/11/06 06:56:02;;;;;;;17.27;2.78;;;10.70;99.90;;;;;;5028586;28;20070;-74
2023/11/06 06:58:28;;;;;;;13.52;2.45;;;10.70;99.90;;;;;;5019208;28;20033;-77
2023/11/06 07:00:54;;;;;;;18.25;3.42;;;10.70;99.90;;;;;;5014249;28;20067;-72
2023/11/06 07:03:20;;;;;;;14.73;3.15;;;10.70;99.90;;;;;;5017106;28;20430;-74
2023/11/06 07:05:47;;;;;;;10.90;2.95;;;10.80;99.90;;;;;;5020869;28;20035;-75
2023/11/06 07:08:13;;;;;;;12.07;3.03;;;10.70;99.90;;;;;;5017687;28;20026;-74
2023/11/06 07:10:38;;;;;;;11.85;2.42;;;10.70;99.90;;;;;;5019074;28;20426;-74
2023/11/06 07:13:04;;;;;;;13.32;2.80;;;10.70;99.90;;;;;;5019702;28;20044;-74
2023/11/06 07:15:30;;;;;;;21.35;3.75;;;10.70;99.90;;;;;;5017848;28;20427;-75
2023/11/06 07:17:58;;;;;;;17.27;3.05;;;10.70;99.90;;;;;;5016470;28;20444;-73
2023/11/06 07:20:24;;;;;;;18.83;3.63;;;10.60;99.90;;;;;;5018334;28;20026;-73
2023/11/06 07:22:50;;;;;;;20.85;3.35;;;10.60;99.90;;;;;;5018834;28;20432;-73
2023/11/06 07:25:16;;;;;;;16.45;3.15;;;10.60;99.90;;;;;;5021401;28;20465;-73
2023/11/06 07:27:43;;;;;;;19.60;2.78;;;10.60;99.90;;;;;;5023125;28;20033;-72
2023/11/06 07:30:10;;;;;;;17.83;2.55;;;10.70;99.90;;;;;;5021534;28;20542;-74
2023/11/06 07:32:36;;;;;;;14.50;2.83;;;10.70;99.90;;;;;;5019319;27;20033;-74
2023/11/06 07:35:01;;;;;;;14.20;2.38;;;10.70;99.90;;;;;;5018457;28;20021;-75
2023/11/06 07:37:29;;;;;;;13.55;2.58;;;10.80;99.90;;;;;;5023190;28;20018;-73
2023/11/06 07:39:55;;;;;;;15.77;2.65;;;10.80;99.90;;;;;;5027209;28;20030;-73
2023/11/06 07:42:21;;;;;;;9.20;2.83;;;10.80;99.90;;;;;;5026769;28;20044;-74
2023/11/06 07:44:47;;;;;;;23.00;3.13;;;10.90;99.90;;;;;;5020722;28;20590;-76
2023/11/06 07:47:13;;;;;;;9.80;2.50;;;10.90;99.90;;;;;;5017945;28;20107;-73
2023/11/06 07:49:39;;;;;;;13.93;2.55;;;11.00;99.90;;;;;;5021555;28;20029;-73
2023/11/06 07:52:09;;;;;;;16.23;3.08;;;11.10;99.90;;;;;;5025323;28;20116;-75
2023/11/06 07:54:39;;;;;;;15.35;3.40;;;11.10;99.90;;;;;;5019155;28;20018;-74
2023/11/06 07:57:05;;;;;;;11.38;2.97;;;11.00;99.90;;;;;;5018225;28;20490;-74
2023/11/06 07:59:31;;;;;;;11.93;2.72;;;11.10;99.90;;;;;;5013333;28;20030;-74
2023/11/06 08:01:59;;;;;;;12.05;2.72;;;11.10;99.90;;;;;;5018646;28;20022;-73
2023/11/06 08:04:25;;;;;;;19.35;3.22;;;11.10;99.90;;;;;;5023096;28;20780;-74
2023/11/06 08:06:51;;;;;;;14.00;2.75;;;11.10;99.90;;;;;;5019364;28;20025;-78
2023/11/06 08:09:17;;;;;;;15.25;3.15;;;11.10;99.90;;;;;;5019330;28;20037;-76
2023/11/06 08:11:42;;;;;;;19.10;3.05;;;11.10;99.90;;;;;;5014918;28;20041;-74
2023/11/06 08:14:08;;;;;;;19.92;3.80;;;11.10;99.90;;;;;;5032222;28;20033;-74
2023/11/06 08:16:38;;;;;;;12.98;2.67;;;11.10;99.90;;;;;;5021203;28;20057;-76
2023/11/06 08:19:05;;;;;;;11.98;2.30;;;11.10;99.90;;;;;;5015754;28;20030;-74
2023/11/06 08:21:31;;;;;;;12.63;2.70;;;11.10;99.90;;;;;;5018180;28;20559;-73
2023/11/06 08:23:57;;;;;;;15.73;3.20;;;11.10;99.90;;;;;;5017454;28;20038;-74
2023/11/06 08:26:23;;;;;;;13.60;2.50;;;11.20;99.90;;;;;;5024416;28;20039;-73
2023/11/06 08:28:48;;;;;;;13.45;2.58;;;11.20;99.90;;;;;;5019930;28;20102;-74
2023/11/06 08:31:17;;;;;;;22.20;3.40;;;11.20;99.90;;;;;;5019021;28;20037;-74
2023/11/06 08:33:43;;;;;;;15.43;3.08;;;11.10;99.90;;;;;;5048207;27;20040;-76
2023/11/06 08:36:09;;;;;;;16.45;2.80;;;11.10;99.90;;;;;;5030150;27;20030;-77
2023/11/06 08:38:35;;;;;;;15.80;3.13;;;11.20;99.90;;;;;;5021631;27;20473;-73
2023/11/06 08:41:07;;;;;;;13.00;2.97;;;11.20;99.90;;;;;;5018023;28;20052;-73
2023/11/06 08:43:33;;;;;;;15.52;2.65;;;11.30;99.90;;;;;;5021757;28;20021;-77
2023/11/06 08:46:01;;;;;;;12.68;3.40;;;11.40;99.90;;;;;;5025381;28;20030;-74
2023/11/06 08:48:27;;;;;;;12.48;3.00;;;11.50;99.90;;;;;;5019035;28;20028;-76
2023/11/06 08:50:53;;;;;;;9.90;3.03;;;11.50;99.90;;;;;;5025266;28;20109;-73
2023/11/06 08:53:18;;;;;;;19.38;3.45;;;11.60;99.90;;;;;;5022435;28;20030;-74
2023/11/06 08:55:44;;;;;;;13.52;2.72;;;11.70;99.90;;;;;;5018730;28;20473;-74
2023/11/06 08:58:16;;;;;;;15.48;3.10;;;11.60;99.90;;;;;;5020547;28;20029;-75
2023/11/06 09:00:42;;;;;;;13.57;3.33;;;11.70;99.90;;;;;;5022869;28;20022;-75
2023/11/06 09:03:11;;;;;;;12.60;3.20;;;11.70;99.90;;;;;;5029117;28;20026;-73
2023/11/06 09:05:37;;;;;;;14.25;3.33;;;11.70;99.90;;;;;;5020969;28;20060;-73
2023/11/06 09:08:03;;;;;;;18.65;2.97;;;11.80;99.90;;;;;;5022169;28;20053;-72
2023/11/06 09:10:28;;;;;;;11.52;3.05;;;11.80;99.90;;;;;;5023302;28;20127;-74
2023/11/06 09:12:55;;;;;;;15.35;2.85;;;11.90;99.90;;;;;;5019022;28;20041;-73
2023/11/06 09:15:21;;;;;;;15.30;2.97;;;11.90;99.90;;;;;;5021558;28;20485;-73
2023/11/06 09:17:46;;;;;;;15.75;2.95;;;12.00;99.90;;;;;;5018752;28;20030;-73
2023/11/06 09:20:12;;;;;;;14.68;2.75;;;12.00;99.90;;;;;;5026556;28;20022;-74
2023/11/06 09:22:38;;;;;;;14.50;3.38;;;12.10;99.90;;;;;;5019639;28;20116;-73
2023/11/06 09:25:08;;;;;;;11.25;2.85;;;12.10;99.90;;;;;;5018697;28;20394;-73
2023/11/06 09:27:34;;;;;;;14.23;3.58;;;12.20;99.90;;;;;;5016419;28;20058;-72
2023/11/06 09:30:01;;;;;;;13.38;2.70;;;12.30;99.90;;;;;;5022339;28;20101;-72
2023/11/06 09:32:27;;;;;;;9.60;2.65;;;12.40;99.90;;;;;;5019351;28;20041;-74
2023/11/06 09:34:53;;;;;;;15.10;3.00;;;12.50;99.90;;;;;;5019184;28;20086;-72
2023/11/06 09:37:18;;;;;;;12.38;3.05;;;12.60;99.90;;;;;;5020405;28;20034;-73
2023/11/06 09:39:44;;;;;;;13.40;3.00;;;12.60;99.90;;;;;;5022044;28;20026;-73
2023/11/06 09:42:13;;;;;;;12.75;2.83;;;12.50;99.90;;;;;;5028697;28;20029;-73
2023/11/06 09:44:39;;;;;;;12.55;2.58;;;12.60;99.90;;;;;;5017095;28;20033;-73
2023/11/06 09:47:08;;;;;;;12.73;2.50;;;12.60;99.90;;;;;;5020869;28;20025;-73
2023/11/06 09:49:43;;;;;;;15.32;3.10;;;12.60;99.90;;;;;;5025339;28;20036;-73
2023/11/06 09:52:09;;;;;;;19.55;3.05;;;12.70;99.90;;;;;;5021186;28;20037;-73
2023/11/06 09:54:41;;;;;;;16.85;3.35;;;12.70;99.90;;;;;;5029321;28;20029;-73
2023/11/06 09:57:11;;;;;;;9.73;2.88;;;12.80;99.90;;;;;;5019438;28;20044;-72
2023/11/06 09:59:37;;;;;;;15.32;3.05;;;12.70;99.90;;;;;;5022240;27;20042;-72
2023/11/06 10:02:04;;;;;;;13.00;2.85;;;12.70;99.90;;;;;;5027496;28;20101;-73
2023/11/06 10:04:32;;;;;;;14.35;2.60;;;12.80;99.90;;;;;;5028910;28;20021;-73
2023/11/06 10:06:59;;;;;;;19.60;3.42;;;12.80;99.90;;;;;;5030243;28;20121;-73
2023/11/06 10:09:25;;;;;;;13.48;2.78;;;12.80;99.90;;;;;;5015535;27;20030;-73
2023/11/06 10:11:51;;;;;;;16.20;2.35;;;12.80;99.90;;;;;;5022510;28;20042;-73
2023/11/06 10:14:17;;;;;;;10.23;2.45;;;12.80;99.90;;;;;;5022296;28;20025;-73
2023/11/06 10:16:43;;;;;;;13.52;2.35;;;12.70;99.90;;;;;;5020818;28;20021;-73
2023/11/06 10:19:12;;;;;;;17.45;3.65;;;12.80;99.90;;;;;;5022259;28;20098;-73
2023/11/06 10:21:41;;;;;;;15.40;2.40;;;12.90;99.90;;;;;;5026421;28;20437;-73
2023/11/06 10:24:08;;;;;;;12.75;2.40;;;12.90;99.90;;;;;;5028496;28;20053;-74
2023/11/06 10:26:34;;;;;;;15.77;2.40;;;13.00;99.90;;;;;;5016304;28;20025;-72
2023/11/06 10:29:19;;;;;;;14.27;3.08;;;13.00;99.90;;;;;;5022979;27;20022;-73
2023/11/06 10:31:49;;;;;;;14.23;2.58;;;13.10;99.90;;;;;;5018645;28;20140;-71
2023/11/06 10:34:37;;;;;;;11.80;2.47;;;13.00;99.90;;;;;;5021746;28;20036;-72
2023/11/06 10:37:10;;;;;;;12.15;2.80;;;13.00;99.90;;;;;;5020800;28;20115;-72
2023/11/06 10:39:40;;;;;;;13.05;2.80;;;13.10;99.90;;;;;;5027259;28;20021;-72
2023/11/06 10:42:09;;;;;;;12.95;3.00;;;13.00;99.90;;;;;;5022960;28;20026;-72
2023/11/06 10:44:36;;;;;;;10.23;2.17;;;13.10;99.90;;;;;;5018678;28;20071;-72
2023/11/06 10:47:06;;;;;;;8.80;2.42;;;13.10;99.90;;;;;;5019061;28;20034;-72
2023/11/06 10:49:34;;;;;;;12.27;2.90;;;13.20;99.90;;;;;;5018812;28;20154;-72
2023/11/06 10:52:06;;;;;;;8.88;2.42;;;13.20;99.90;;;;;;5018717;28;20042;-73
2023/11/06 10:54:34;;;;;;;11.87;2.77;;;13.20;99.90;;;;;;5017485;28;20022;-74
2023/11/06 10:57:01;;;;;;;12.05;2.22;;;13.20;99.90;;;;;;5020202;28;20304;-73
2023/11/06 10:59:32;;;;;;;8.88;2.78;;;13.20;99.90;;;;;;5023327;28;20018;-73
2023/11/06 11:01:59;;;;;;;13.25;2.60;;;13.30;99.90;;;;;;5018303;28;20117;-72
2023/11/06 11:04:30;;;;;;;16.98;2.38;;;13.30;99.90;;;;;;5023270;28;20580;-76
2023/11/06 11:06:58;;;;;;;11.07;2.85;;;13.30;99.90;;;;;;5014679;28;20033;-71
2023/11/06 11:09:24;;;;;;;10.43;2.35;;;13.30;99.90;;;;;;5023608;28;20504;-73
2023/11/06 11:12:00;;;;;;;12.45;2.50;;;13.20;99.90;;;;;;5018244;28;20154;-74
2023/11/06 11:14:56;;;;;;;10.63;2.58;;;13.20;99.90;;;;;;5027816;28;20465;-77
2023/11/06 11:17:24;;;;;;;12.48;2.30;;;13.20;99.90;;;;;;5000746;28;20041;-73
2023/11/06 11:19:55;;;;;;;9.63;2.25;;;13.20;99.90;;;;;;5018076;28;20037;-73
2023/11/06 11:22:20;;;;;;;13.10;2.67;;;13.20;99.90;;;;;;5022455;28;20887;-72
2023/11/06 11:24:49;;;;;;;6.68;1.60;;;13.20;99.90;;;;;;5019441;28;20043;-73
2023/11/06 11:27:23;;;;;;;7.20;2.13;;;13.20;99.90;;;;;;4998101;27;20033;-73
2023/11/06 11:29:55;;;;;;;7.20;1.95;;;13.30;99.90;;;;;;5026317;28;20074;-74
2023/11/06 11:32:21;;;;;;;10.88;2.60;;;13.50;99.90;;;;;;5020541;28;20038;-73
2023/11/06 11:34:47;;;;;;;10.30;2.08;;;13.50;99.90;;;;;;5028223;28;20048;-73
2023/11/06 11:37:29;;;;;;;9.65;2.28;;;13.60;99.90;;;;;;5019407;28;20110;-75
2023/11/06 11:39:56;;;;;;;9.77;1.80;;;13.50;99.90;;;;;;5025309;28;20017;-73
2023/11/06 11:42:22;;;;;;;11.38;1.90;;;13.60;99.90;;;;;;5026397;28;20122;-74
2023/11/06 11:44:51;;;;;;;12.43;2.17;;;13.70;99.90;;;;;;5025778;28;20628;-73
2023/11/06 11:47:17;;;;;;;4.32;1.50;;;13.90;99.90;;;;;;5021799;28;20022;-75
2023/11/06 11:49:47;;;;;;;7.95;1.60;;;13.90;99.90;;;;;;5022972;28;20078;-73
2023/11/06 11:52:23;;;;;;;7.85;2.13;;;13.90;99.90;;;;;;5025186;28;20049;-73
2023/11/06 11:54:49;;;;;;;7.70;1.58;;;13.90;99.90;;;;;;5016851;28;20084;-72
2023/11/06 11:57:16;;;;;;;8.52;1.75;;;13.90;99.90;;;;;;5023263;28;20045;-73
2023/11/06 11:59:47;;;;;;;8.05;1.75;;;14.00;99.90;;;;;;5015742;28;20034;-73
2023/11/06 12:02:33;;;;;;;7.30;1.75;;;14.00;99.90;;;;;;5019896;28;20109;-73
2023/11/06 12:05:11;;;;;;;8.35;1.70;;;14.00;99.90;;;;;;5028438;27;20029;-72
2023/11/06 12:07:42;;;;;;;7.25;1.60;;;14.00;99.90;;;;;;5019648;28;20025;-73
2023/11/06 12:10:09;;;;;;;8.88;1.50;;;13.90;99.90;;;;;;5026554;27;20055;-74
2023/11/06 12:12:36;;;;;;;6.78;1.70;;;14.00;99.90;;;;;;5023463;27;20702;-73
2023/11/06 12:15:08;;;;;;;7.22;1.77;;;14.00;99.90;;;;;;5027265;28;20032;-74
2023/11/06 12:17:35;;;;;;;;;;;13.90;99.90;;;;;;5026511;27;20060;-73
2023/11/06 12:20:05;;;;;;;7.03;2.08;;;13.90;99.90;;;;;;5032027;28;19920;-74
2023/11/06 12:22:31;;;;;;;8.82;1.90;;;13.90;99.90;;;;;;5034025;27;20017;-72
2023/11/06 12:24:58;;;;;;;10.15;1.92;;;13.80;99.90;;;;;;5022551;28;20026;-74
2023/11/06 12:27:34;;;;;;;7.60;1.88;;;13.70;99.90;;;;;;5028937;28;20094;-75
2023/11/06 12:30:08;;;;;;;11.15;2.20;;;13.80;99.90;;;;;;5024730;27;20498;-76
2023/11/06 12:32:36;;;;;;;6.22;2.03;;;13.90;99.90;;;;;;5028898;28;20040;-73
2023/11/06 12:35:19;;;;;;;12.80;2.03;;;13.80;99.90;;;;;;5023052;27;20025;-75
2023/11/06 12:37:51;;;;;;;;;;;13.80;99.90;;;;;;5029364;27;20113;-76
2023/11/06 12:40:18;;;;;;;8.43;1.58;;;13.90;99.90;;;;;;5022785;27;19909;-76